Terminal Aerodrome Forecast
Issued by NWS

Home | Current Version | Previous Version | Text Only | Print | Product List | Glossary On
Versions: 1 2 3 4 5 6 7 8 9 10 11 12 13 14 15 16 17
000
FTUS43 KDLH 101700
TAFBRD
TAF
KBRD 101730Z 1018/1118 17009KT P6SM BKN250
     FM110000 18008KT P6SM BKN080
     FM110400 17006KT P6SM VCTS SCT050 OVC110CB WS020/19040KT
     FM110600 18006KT P6SM -TSRA SCT050 OVC100CB
     FM111100 19012KT P6SM SCT100 OVC250=

USA.gov is the U.S. government's official web portal to all federal, state and local government web resources and services.